createdAt,value
2019-02-03T00:01:11.172Z,19.60
2019-02-03T00:03:39.669Z,19.62
2019-02-03T00:06:08.790Z,18.45
2019-02-03T00:08:37.217Z,21.02
2019-02-03T00:11:06.345Z,19.30
2019-02-03T00:13:35.486Z,20.05
2019-02-03T00:16:04.632Z,20.15
2019-02-03T00:18:33.121Z,19.75
2019-02-03T00:21:01.582Z,20.20
2019-02-03T00:23:30.418Z,21.52
2019-02-03T00:25:58.852Z,18.35
2019-02-03T00:28:27.585Z,19.57
2019-02-03T00:30:56.625Z,22.35
2019-02-03T00:33:25.473Z,21.05
2019-02-03T00:35:54.359Z,23.92
2019-02-03T00:38:24.318Z,20.88
2019-02-03T00:40:53.543Z,20.08
2019-02-03T00:43:22.338Z,22.73
2019-02-03T00:45:51.074Z,21.90
2019-02-03T00:48:19.838Z,22.32
2019-02-03T00:50:48.630Z,23.35
2019-02-03T00:53:17.442Z,20.43
2019-02-03T00:55:45.876Z,22.00
2019-02-03T00:58:14.297Z,23.32
2019-02-03T01:00:43.067Z,21.62
2019-02-03T01:03:11.559Z,22.62
2019-02-03T01:05:40.066Z,19.82
2019-02-03T01:08:09.494Z,21.87
2019-02-03T01:10:38.006Z,19.80
2019-02-03T01:13:06.805Z,21.52
2019-02-03T01:15:35.594Z,21.17
2019-02-03T01:18:04.293Z,18.75
2019-02-03T01:20:32.787Z,20.50
2019-02-03T01:23:02.062Z,17.70
2019-02-03T01:25:30.480Z,20.02
2019-02-03T01:27:58.926Z,18.57
2019-02-03T01:30:27.421Z,17.42
2019-02-03T01:32:55.923Z,19.92
2019-02-03T01:35:24.561Z,21.55
2019-02-03T01:37:53.670Z,19.27
2019-02-03T01:40:22.229Z,17.85
2019-02-03T01:42:50.738Z,19.98
2019-02-03T01:45:23.487Z,21.52
2019-02-03T01:47:51.998Z,19.00
2019-02-03T01:50:20.421Z,22.32
2019-02-03T01:52:48.865Z,20.90
2019-02-03T01:55:25.964Z,19.60
2019-02-03T01:57:54.541Z,20.05
2019-02-03T02:00:25.701Z,17.15
2019-02-03T02:02:54.589Z,18.75
2019-02-03T02:05:23.249Z,19.00
2019-02-03T02:07:52.250Z,19.27
2019-02-03T02:10:23.589Z,17.90
2019-02-03T02:12:52.097Z,20.00
2019-02-03T02:15:21.561Z,21.00
2019-02-03T02:17:51.301Z,20.48
2019-02-03T02:20:27.689Z,20.10
2019-02-03T02:22:56.378Z,18.35
2019-02-03T02:25:25.463Z,15.98
2019-02-03T02:27:54.033Z,18.98
2019-02-03T02:30:25.240Z,16.45
2019-02-03T02:32:54.267Z,16.35
2019-02-03T02:35:23.150Z,17.48
2019-02-03T02:38:05.172Z,16.77
2019-02-03T02:40:23.818Z,18.82
2019-02-03T02:42:52.817Z,18.73
2019-02-03T02:45:22.714Z,17.90
2019-02-03T02:47:51.225Z,18.42
2019-02-03T02:50:34.997Z,18.75
2019-02-03T02:53:03.715Z,18.50
2019-02-03T02:55:32.581Z,15.55
2019-02-03T02:58:01.294Z,14.90
2019-02-03T03:00:29.985Z,17.75
2019-02-03T03:02:58.501Z,17.87
2019-02-03T03:05:26.921Z,17.10
2019-02-03T03:07:55.374Z,16.65
2019-02-03T03:10:24.174Z,17.73
2019-02-03T03:12:52.692Z,17.37
2019-02-03T03:15:22.242Z,16.60
2019-02-03T03:17:51.317Z,18.23
2019-02-03T03:20:21.581Z,17.55
2019-02-03T03:22:50.838Z,15.78
2019-02-03T03:25:21.373Z,16.82
2019-02-03T03:27:50.089Z,15.72
2019-02-03T03:30:27.072Z,16.57
2019-02-03T03:32:56.314Z,17.35
2019-02-03T03:35:25.717Z,16.95
2019-02-03T03:37:54.511Z,15.95
2019-02-03T03:40:27.941Z,14.58
2019-02-03T03:42:56.903Z,16.00
2019-02-03T03:45:25.968Z,14.65
2019-02-03T03:47:54.405Z,13.88
2019-02-03T03:50:23.164Z,15.72
2019-02-03T03:52:52.117Z,17.42
2019-02-03T03:55:21.049Z,15.60
2019-02-03T03:57:49.866Z,14.85
2019-02-03T04:00:23.564Z,15.15
2019-02-03T04:02:53.130Z,17.57
2019-02-03T04:05:22.072Z,14.70
2019-02-03T04:07:50.710Z,14.70
2019-02-03T04:10:21.757Z,15.48
2019-02-03T04:12:50.481Z,13.90
2019-02-03T04:15:20.288Z,15.32
2019-02-03T04:17:49.702Z,14.60
2019-02-03T04:20:21.135Z,14.07
2019-02-03T04:22:50.021Z,14.90
2019-02-03T04:25:18.527Z,14.70
2019-02-03T04:27:47.024Z,14.00
2019-02-03T04:30:18.849Z,16.35
2019-02-03T04:32:47.274Z,13.00
2019-02-03T04:35:16.007Z,14.98
2019-02-03T04:37:44.689Z,14.75
2019-02-03T04:40:15.733Z,15.53
2019-02-03T04:42:44.835Z,17.05
2019-02-03T04:45:15.413Z,15.72
2019-02-03T04:47:44.057Z,13.60
2019-02-03T04:50:15.210Z,13.13
2019-02-03T04:52:43.698Z,12.43
2019-02-03T04:55:19.984Z,12.73
2019-02-03T04:57:48.826Z,13.50
2019-02-03T05:00:20.085Z,13.05
2019-02-03T05:02:48.747Z,13.78
2019-02-03T05:05:18.158Z,12.47
2019-02-03T05:07:47.038Z,12.15
2019-02-03T05:10:18.078Z,10.68
2019-02-03T05:12:46.606Z,14.25
2019-02-03T05:15:17.436Z,11.63
2019-02-03T05:17:46.301Z,13.95
2019-02-03T05:20:17.349Z,11.80
2019-02-03T05:22:46.145Z,11.08
2019-02-03T05:25:15.333Z,12.05
2019-02-03T05:27:43.923Z,10.08
2019-02-03T05:30:30.271Z,10.85
2019-02-03T05:32:58.937Z,9.83
2019-02-03T05:35:27.441Z,10.08
2019-02-03T05:37:55.953Z,9.50
2019-02-03T05:40:24.930Z,8.08
2019-02-03T05:42:53.647Z,10.48
2019-02-03T05:45:23.422Z,7.90
2019-02-03T05:47:52.657Z,8.90
2019-02-03T05:50:22.234Z,8.10
2019-02-03T05:52:50.890Z,9.08
2019-02-03T05:55:20.307Z,8.03
2019-02-03T05:57:48.969Z,7.80
2019-02-03T06:00:21.935Z,8.60
2019-02-03T06:02:50.714Z,8.10
2019-02-03T06:05:19.153Z,6.95
2019-02-03T06:07:47.577Z,8.15
2019-02-03T06:10:17.754Z,8.28
2019-02-03T06:12:46.415Z,7.35
2019-02-03T06:15:15.967Z,8.15
2019-02-03T06:17:44.778Z,8.08
2019-02-03T06:20:16.946Z,8.00
2019-02-03T06:22:46.463Z,8.85
2019-02-03T06:25:15.652Z,7.50
2019-02-03T06:27:44.209Z,7.40
2019-02-03T06:30:21.439Z,7.83
2019-02-03T06:32:49.854Z,6.75
2019-02-03T06:35:18.285Z,7.65
2019-02-03T06:37:46.706Z,9.65
2019-02-03T06:40:15.551Z,7.70
2019-02-03T06:42:44.437Z,7.92
2019-02-03T06:45:30.932Z,9.08
2019-02-03T06:48:00.188Z,8.58
2019-02-03T06:50:28.936Z,7.75
2019-02-03T06:52:57.425Z,8.85
2019-02-03T06:55:25.849Z,9.18
2019-02-03T06:57:54.562Z,9.90
2019-02-03T07:00:22.977Z,8.90
2019-02-03T07:02:51.421Z,8.60
2019-02-03T07:05:19.913Z,9.15
2019-02-03T07:07:48.917Z,10.00
2019-02-03T07:10:17.401Z,9.25
2019-02-03T07:12:45.909Z,9.55
2019-02-03T07:15:14.977Z,9.38
2019-02-03T07:17:43.429Z,9.63
2019-02-03T07:20:16.469Z,9.80
2019-02-03T07:22:45.254Z,8.60
2019-02-03T07:25:15.580Z,7.30
2019-02-03T07:27:44.341Z,9.15
2019-02-03T07:30:15.799Z,7.55
2019-02-03T07:32:44.237Z,7.78
2019-02-03T07:35:13.379Z,8.58
2019-02-03T07:37:42.177Z,7.90
2019-02-03T07:40:21.599Z,8.30
2019-02-03T07:42:50.109Z,8.73
2019-02-03T07:45:18.878Z,8.93
2019-02-03T07:47:47.782Z,8.35
2019-02-03T07:50:17.345Z,8.58
2019-02-03T07:52:45.926Z,8.90
2019-02-03T07:55:15.465Z,9.70
2019-02-03T07:57:43.969Z,8.95
2019-02-03T08:00:17.766Z,9.75
2019-02-03T08:02:46.365Z,9.20
2019-02-03T08:05:16.167Z,10.03
2019-02-03T08:07:44.610Z,10.48
2019-02-03T08:10:25.352Z,12.33
2019-02-03T08:12:48.698Z,13.13
2019-02-03T08:15:18.653Z,9.95
2019-02-03T08:17:47.159Z,10.95
2019-02-03T08:20:18.222Z,11.65
2019-02-03T08:22:46.657Z,12.23
2019-02-03T08:25:16.732Z,13.03
2019-02-03T08:27:46.020Z,13.15
2019-02-03T08:30:20.250Z,11.63
2019-02-03T08:32:48.822Z,10.45
2019-02-03T08:35:19.867Z,9.63
2019-02-03T08:37:47.802Z,13.60
2019-02-03T08:40:21.701Z,11.35
2019-02-03T08:42:50.361Z,12.45
2019-02-03T08:45:21.145Z,10.95
2019-02-03T08:47:50.042Z,10.18
2019-02-03T08:50:20.321Z,10.13
2019-02-03T08:52:51.286Z,9.20
2019-02-03T08:55:19.791Z,7.97
2019-02-03T08:57:48.370Z,9.83
2019-02-03T09:00:25.661Z,11.08
2019-02-03T09:02:54.079Z,9.58
2019-02-03T09:05:22.611Z,10.65
2019-02-03T09:07:51.605Z,10.95
2019-02-03T09:10:24.537Z,9.15
2019-02-03T09:12:53.199Z,10.40
2019-02-03T09:15:30.781Z,10.20
2019-02-03T09:18:00.457Z,11.50
2019-02-03T09:20:34.613Z,10.00
2019-02-03T09:23:03.489Z,10.80
2019-02-03T09:25:31.929Z,11.68
2019-02-03T09:28:00.353Z,10.78
2019-02-03T09:30:36.770Z,10.38
2019-02-03T09:33:06.977Z,11.28
2019-02-03T09:35:35.740Z,10.80
2019-02-03T09:38:04.996Z,12.63
2019-02-03T09:40:34.726Z,13.30
2019-02-03T09:43:03.644Z,12.03
2019-02-03T09:45:32.515Z,7.45
2019-02-03T09:48:01.405Z,12.45
2019-02-03T09:50:31.923Z,13.38
2019-02-03T09:53:02.233Z,12.85
2019-02-03T09:55:31.315Z,12.90
2019-02-03T09:58:00.665Z,12.88
2019-02-03T10:00:31.522Z,10.38
2019-02-03T10:03:01.211Z,11.03
2019-02-03T10:05:30.098Z,15.63
2019-02-03T10:07:58.601Z,14.00
2019-02-03T10:10:32.713Z,13.95
2019-02-03T10:13:01.293Z,9.05
2019-02-03T10:15:29.869Z,14.53
2019-02-03T10:17:58.601Z,12.78
2019-02-03T10:20:27.537Z,12.25
2019-02-03T10:22:56.434Z,11.38
2019-02-03T10:25:29.797Z,11.30
2019-02-03T10:27:58.465Z,13.80
2019-02-03T10:30:27.709Z,10.23
2019-02-03T10:32:57.303Z,11.95
2019-02-03T10:35:30.836Z,9.95
2019-02-03T10:37:59.934Z,16.27
2019-02-03T10:40:37.449Z,14.05
2019-02-03T10:43:07.042Z,13.45
2019-02-03T10:45:36.006Z,12.40
2019-02-03T10:48:05.564Z,14.63
2019-02-03T10:50:36.806Z,14.80
2019-02-03T10:53:08.092Z,13.05
2019-02-03T10:55:37.005Z,13.78
2019-02-03T10:58:06.152Z,12.43
2019-02-03T11:00:40.053Z,15.13
2019-02-03T11:03:08.899Z,14.95
2019-02-03T11:05:40.338Z,16.02
2019-02-03T11:08:10.873Z,12.18
2019-02-03T11:10:39.562Z,12.73
2019-02-03T11:13:08.245Z,13.80
2019-02-03T11:15:36.749Z,13.32
2019-02-03T11:18:05.701Z,11.80
2019-02-03T11:20:35.233Z,14.43
2019-02-03T11:23:04.022Z,14.33
2019-02-03T11:25:33.457Z,12.00
2019-02-03T11:28:02.192Z,13.50
2019-02-03T11:30:31.471Z,13.75
2019-02-03T11:33:06.456Z,13.20
2019-02-03T11:35:34.470Z,13.98
2019-02-03T11:38:03.213Z,11.85
2019-02-03T11:40:34.381Z,13.68
2019-02-03T11:43:03.152Z,13.32
2019-02-03T11:45:34.340Z,13.22
2019-02-03T11:48:03.421Z,14.35
2019-02-03T11:50:35.179Z,12.47
2019-02-03T11:53:05.608Z,13.65
2019-02-03T11:55:34.173Z,15.65
2019-02-03T11:58:02.933Z,12.33
2019-02-03T12:00:32.846Z,14.58
2019-02-03T12:03:01.734Z,12.35
2019-02-03T12:05:30.526Z,11.05
2019-02-03T12:07:59.041Z,12.80
2019-02-03T12:10:30.420Z,11.80
2019-02-03T12:12:59.993Z,13.13
2019-02-03T12:15:28.965Z,13.03
2019-02-03T12:17:57.542Z,12.23
2019-02-03T12:20:26.133Z,12.80
2019-02-03T12:22:54.645Z,10.70
2019-02-03T12:25:26.489Z,11.43
2019-02-03T12:27:55.358Z,11.25
2019-02-03T12:30:30.442Z,12.13
2019-02-03T12:32:59.381Z,11.70
2019-02-03T12:35:28.170Z,10.50
2019-02-03T12:37:56.986Z,8.00
2019-02-03T12:40:31.058Z,11.12
2019-02-03T12:42:59.732Z,11.63
2019-02-03T12:45:29.686Z,8.00
2019-02-03T12:47:58.474Z,9.58
2019-02-03T12:50:27.360Z,11.35
2019-02-03T12:52:56.252Z,10.03
2019-02-03T12:55:27.802Z,10.20
2019-02-03T12:57:56.729Z,8.65
2019-02-03T13:00:27.749Z,10.28
2019-02-03T13:02:56.308Z,9.53
2019-02-03T13:05:26.664Z,10.30
2019-02-03T13:07:56.369Z,9.58
2019-02-03T13:10:32.997Z,9.65
2019-02-03T13:13:01.922Z,11.68
2019-02-03T13:15:35.934Z,10.05
2019-02-03T13:18:05.954Z,13.30
2019-02-03T13:20:35.109Z,11.40
2019-02-03T13:23:03.878Z,10.70
2019-02-03T13:25:32.945Z,9.18
2019-02-03T13:28:01.860Z,10.60
2019-02-03T13:30:35.638Z,12.85
2019-02-03T13:33:04.313Z,12.33
2019-02-03T13:35:33.305Z,11.83
2019-02-03T13:38:01.797Z,11.05
2019-02-03T13:40:30.598Z,13.45
2019-02-03T13:42:59.025Z,11.95
2019-02-03T13:45:27.835Z,12.98
2019-02-03T13:47:58.689Z,10.20
2019-02-03T13:50:28.554Z,12.45
2019-02-03T13:52:57.441Z,12.10
2019-02-03T13:55:28.093Z,13.78
2019-02-03T13:57:58.156Z,12.58
2019-02-03T14:00:38.489Z,12.05
2019-02-03T14:03:07.330Z,10.70
2019-02-03T14:05:35.936Z,11.00
2019-02-03T14:08:04.847Z,10.05
2019-02-03T14:10:34.817Z,8.65
2019-02-03T14:13:04.692Z,10.10
2019-02-03T14:15:33.269Z,9.93
2019-02-03T14:18:01.929Z,10.25
2019-02-03T14:20:31.955Z,8.68
2019-02-03T14:23:01.135Z,8.53
2019-02-03T14:25:30.262Z,8.15
2019-02-03T14:27:59.369Z,8.83
2019-02-03T14:30:40.366Z,5.95
2019-02-03T14:33:06.777Z,9.78
2019-02-03T14:35:35.361Z,6.80
2019-02-03T14:38:04.989Z,6.60
2019-02-03T14:40:33.757Z,7.60
2019-02-03T14:43:02.536Z,8.10
2019-02-03T14:45:32.365Z,7.03
2019-02-03T14:48:01.857Z,6.97
2019-02-03T14:50:30.294Z,7.45
2019-02-03T14:53:01.750Z,7.20
2019-02-03T14:55:36.017Z,6.10
2019-02-03T14:58:05.845Z,6.80
2019-02-03T15:00:37.482Z,5.80
2019-02-03T15:03:09.066Z,5.30
2019-02-03T15:05:37.570Z,4.78
2019-02-03T15:08:06.978Z,6.22
2019-02-03T15:10:35.658Z,6.95
2019-02-03T15:13:12.992Z,6.08
2019-02-03T15:15:36.392Z,7.42
2019-02-03T15:18:05.881Z,6.20
2019-02-03T15:20:34.533Z,6.47
2019-02-03T15:23:03.094Z,5.75
2019-02-03T15:25:31.673Z,6.35
2019-02-03T15:28:00.615Z,6.28
2019-02-03T15:30:38.633Z,7.80
2019-02-03T15:33:07.416Z,7.85
2019-02-03T15:35:35.915Z,7.72
2019-02-03T15:38:05.233Z,7.85
2019-02-03T15:40:33.679Z,9.45
2019-02-03T15:43:02.365Z,6.53
2019-02-03T15:45:31.147Z,7.05
2019-02-03T15:47:59.941Z,6.92
2019-02-03T15:50:29.681Z,7.20
2019-02-03T15:52:58.745Z,7.85
2019-02-03T15:55:32.665Z,5.75
2019-02-03T15:58:01.231Z,6.15
2019-02-03T16:00:35.654Z,5.75
2019-02-03T16:03:08.459Z,6.47
2019-02-03T16:05:36.098Z,7.03
2019-02-03T16:08:05.070Z,5.67
2019-02-03T16:10:34.906Z,7.20
2019-02-03T16:13:03.456Z,6.62
2019-02-03T16:15:31.985Z,7.35
2019-02-03T16:18:00.501Z,5.33
2019-02-03T16:20:32.117Z,6.45
2019-02-03T16:23:01.254Z,6.28
2019-02-03T16:25:29.752Z,7.03
2019-02-03T16:27:58.801Z,7.10
2019-02-03T16:30:30.034Z,7.12
2019-02-03T16:32:58.969Z,5.60
2019-02-03T16:35:27.417Z,7.58
2019-02-03T16:37:55.842Z,7.78
2019-02-03T16:40:29.706Z,8.08
2019-02-03T16:43:00.488Z,8.80
2019-02-03T16:45:29.165Z,7.92
2019-02-03T16:47:57.921Z,7.85
2019-02-03T16:50:31.997Z,7.28
2019-02-03T16:53:06.179Z,7.70
2019-02-03T16:55:34.681Z,9.95
2019-02-03T16:58:03.122Z,9.43
2019-02-03T17:00:32.425Z,6.15
2019-02-03T17:03:01.601Z,7.53
2019-02-03T17:05:31.482Z,7.17
2019-02-03T17:08:01.941Z,7.47
2019-02-03T17:10:30.821Z,6.87
2019-02-03T17:12:59.410Z,6.80
2019-02-03T17:15:32.940Z,7.28
2019-02-03T17:18:01.903Z,6.78
2019-02-03T17:20:30.462Z,7.22
2019-02-03T17:22:59.494Z,8.15
2019-02-03T17:25:30.959Z,7.08
2019-02-03T17:27:59.821Z,7.53
2019-02-03T17:30:28.610Z,5.90
2019-02-03T17:32:57.126Z,6.50
2019-02-03T17:35:25.810Z,6.40
2019-02-03T17:37:54.326Z,7.50
2019-02-03T17:40:23.074Z,6.50
2019-02-03T17:42:51.509Z,6.72
2019-02-03T17:45:24.951Z,5.70
2019-02-03T17:47:53.925Z,5.53
2019-02-03T17:50:25.054Z,6.50
2019-02-03T17:52:53.625Z,5.28
2019-02-03T17:55:22.734Z,6.10
2019-02-03T17:57:51.421Z,5.85
2019-02-03T18:00:32.626Z,5.80
2019-02-03T18:03:01.311Z,6.00
2019-02-03T18:05:30.817Z,6.50
2019-02-03T18:07:59.585Z,6.03
2019-02-03T18:10:28.382Z,5.65
2019-02-03T18:12:57.284Z,7.42
2019-02-03T18:15:25.845Z,9.80
2019-02-03T18:17:54.362Z,6.85
2019-02-03T18:20:25.853Z,8.53
2019-02-03T18:22:54.437Z,9.73
2019-02-03T18:25:23.560Z,7.20
2019-02-03T18:27:52.719Z,6.62
2019-02-03T18:30:24.130Z,6.65
2019-02-03T18:32:53.514Z,5.50
2019-02-03T18:35:22.507Z,6.47
2019-02-03T18:37:51.205Z,5.83
2019-02-03T18:40:21.809Z,5.10
2019-02-03T18:42:50.721Z,5.78
2019-02-03T18:45:21.389Z,4.92
2019-02-03T18:47:50.167Z,4.78
2019-02-03T18:50:20.974Z,3.42
2019-02-03T18:52:50.489Z,4.05
2019-02-03T18:55:21.933Z,4.92
2019-02-03T18:57:50.441Z,4.03
2019-02-03T19:00:24.409Z,5.05
2019-02-03T19:02:53.231Z,3.75
2019-02-03T19:05:24.461Z,4.55
2019-02-03T19:07:53.246Z,3.00
2019-02-03T19:10:28.282Z,3.85
2019-02-03T19:12:58.142Z,4.58
2019-02-03T19:15:29.700Z,3.47
2019-02-03T19:17:58.497Z,2.62
2019-02-03T19:20:32.613Z,4.17
2019-02-03T19:23:01.348Z,4.45
2019-02-03T19:25:29.776Z,3.72
2019-02-03T19:28:04.927Z,3.87
2019-02-03T19:30:33.885Z,3.92
2019-02-03T19:33:02.306Z,3.87
2019-02-03T19:35:32.282Z,4.85
2019-02-03T19:38:01.583Z,4.00
2019-02-03T19:40:31.626Z,3.80
2019-02-03T19:43:00.053Z,3.87
2019-02-03T19:45:31.027Z,2.00
2019-02-03T19:47:59.784Z,4.40
2019-02-03T19:50:42.701Z,3.55
2019-02-03T19:53:12.636Z,4.50
2019-02-03T19:55:41.519Z,3.77
2019-02-03T19:58:10.210Z,4.10
2019-02-03T20:00:41.185Z,2.85
2019-02-03T20:03:09.925Z,4.42
2019-02-03T20:05:38.429Z,4.70
2019-02-03T20:08:07.915Z,2.80
2019-02-03T20:10:37.337Z,4.03
2019-02-03T20:13:06.709Z,3.95
2019-02-03T20:15:35.138Z,3.37
2019-02-03T20:18:03.724Z,3.47
2019-02-03T20:20:41.425Z,3.12
2019-02-03T20:23:10.282Z,4.60
2019-02-03T20:25:39.051Z,3.55
2019-02-03T20:28:08.624Z,3.90
2019-02-03T20:30:39.223Z,4.00
2019-02-03T20:33:07.582Z,3.85
2019-02-03T20:35:36.378Z,3.83
2019-02-03T20:38:06.153Z,4.97
2019-02-03T20:40:40.503Z,4.05
2019-02-03T20:43:09.002Z,3.87
2019-02-03T20:45:48.465Z,2.65
2019-02-03T20:48:10.684Z,3.42
2019-02-03T20:50:38.145Z,4.00
2019-02-03T20:53:06.574Z,3.90
2019-02-03T20:55:35.005Z,3.37
2019-02-03T20:58:03.745Z,3.30
2019-02-03T21:00:34.421Z,4.03
2019-02-03T21:03:03.289Z,4.08
2019-02-03T21:05:32.468Z,3.80
2019-02-03T21:08:00.885Z,3.95
2019-02-03T21:10:29.741Z,3.30
2019-02-03T21:13:09.995Z,4.25
2019-02-03T21:15:33.793Z,3.45
2019-02-03T21:17:59.612Z,4.08
2019-02-03T21:20:31.339Z,4.67
2019-02-03T21:22:59.889Z,3.75
2019-02-03T21:25:28.743Z,3.55
2019-02-03T21:27:57.165Z,3.25
2019-02-03T21:30:34.349Z,3.60
2019-02-03T21:33:03.046Z,3.60
2019-02-03T21:35:31.862Z,4.70
2019-02-03T21:38:00.489Z,3.98
2019-02-03T21:40:31.237Z,4.30
2019-02-03T21:42:59.905Z,4.03
2019-02-03T21:45:28.927Z,4.25
2019-02-03T21:47:57.582Z,4.45
2019-02-03T21:50:28.513Z,4.60
2019-02-03T21:52:57.093Z,3.72
2019-02-03T21:55:26.261Z,3.98
2019-02-03T21:57:54.870Z,3.65
2019-02-03T22:00:28.858Z,4.53
2019-02-03T22:02:57.453Z,4.17
2019-02-03T22:05:27.092Z,3.85
2019-02-03T22:07:55.712Z,5.10
2019-02-03T22:10:29.822Z,4.17
2019-02-03T22:12:59.149Z,5.12
2019-02-03T22:15:27.657Z,3.50
2019-02-03T22:17:56.207Z,5.78
2019-02-03T22:20:25.064Z,5.10
2019-02-03T22:22:53.835Z,4.20
2019-02-03T22:25:22.415Z,4.20
2019-02-03T22:27:52.477Z,4.80
2019-02-03T22:30:26.196Z,4.00
2019-02-03T22:32:55.213Z,3.65
2019-02-03T22:35:23.628Z,3.70
2019-02-03T22:37:52.366Z,3.80
2019-02-03T22:40:21.400Z,4.55
2019-02-03T22:42:49.960Z,3.95
2019-02-03T22:45:20.894Z,3.17
2019-02-03T22:47:49.878Z,3.62
2019-02-03T22:50:26.413Z,4.10
2019-02-03T22:52:54.990Z,4.87
2019-02-03T22:55:23.480Z,3.90
2019-02-03T22:57:52.089Z,3.65
2019-02-03T23:00:52.380Z,4.05
2019-02-03T23:03:23.997Z,4.65
2019-02-03T23:05:53.713Z,4.45
2019-02-03T23:08:22.230Z,4.10
2019-02-03T23:10:51.065Z,4.33
2019-02-03T23:13:21.363Z,3.50
2019-02-03T23:15:50.377Z,3.87
2019-02-03T23:18:18.805Z,3.95
2019-02-03T23:20:47.298Z,4.10
2019-02-03T23:23:15.864Z,3.90
2019-02-03T23:25:45.825Z,4.53
2019-02-03T23:28:14.546Z,4.62
2019-02-03T23:30:43.625Z,3.60
2019-02-03T23:33:12.131Z,3.05
2019-02-03T23:35:40.685Z,4.10
2019-02-03T23:38:09.456Z,3.85
2019-02-03T23:40:37.873Z,4.12
2019-02-03T23:43:06.663Z,4.12
2019-02-03T23:45:35.573Z,3.83
2019-02-03T23:48:04.178Z,3.47
2019-02-03T23:50:32.926Z,4.17
2019-02-03T23:53:01.364Z,4.12
2019-02-03T23:55:30.180Z,3.62
2019-02-03T23:57:58.718Z,3.75
